sensor_id;sensor_type;location;lat;lon;timestamp;P1;durP1;ratioP1;P2;durP2;ratioP2
40058;SDS011;25763;49.972;8.568;2023-02-28T00:00:42;8.05;;;7.55;;
40058;SDS011;25763;49.972;8.568;2023-02-28T00:03:08;8.55;;;7.95;;
40058;SDS011;25763;49.972;8.568;2023-02-28T00:05:33;8.10;;;7.60;;
40058;SDS011;25763;49.972;8.568;2023-02-28T00:07:59;8.50;;;7.90;;
40058;SDS011;25763;49.972;8.568;2023-02-28T00:10:26;8.40;;;7.90;;
40058;SDS011;25763;49.972;8.568;2023-02-28T00:12:53;8.68;;;8.07;;
40058;SDS011;25763;49.972;8.568;2023-02-28T00:15:22;8.88;;;8.27;;
40058;SDS011;25763;49.972;8.568;2023-02-28T00:17:48;8.60;;;8.10;;
40058;SDS011;25763;49.972;8.568;2023-02-28T00:20:14;8.73;;;8.13;;
40058;SDS011;25763;49.972;8.568;2023-02-28T00:22:41;8.40;;;7.90;;
40058;SDS011;25763;49.972;8.568;2023-02-28T00:25:09;7.63;;;7.13;;
40058;SDS011;25763;49.972;8.568;2023-02-28T00:27:36;7.75;;;7.25;;
40058;SDS011;25763;49.972;8.568;2023-02-28T00:30:03;8.40;;;7.90;;
40058;SDS011;25763;49.972;8.568;2023-02-28T00:32:29;7.95;;;7.45;;
40058;SDS011;25763;49.972;8.568;2023-02-28T00:34:54;8.35;;;7.85;;
40058;SDS011;25763;49.972;8.568;2023-02-28T00:37:20;8.80;;;8.20;;
40058;SDS011;25763;49.972;8.568;2023-02-28T00:39:45;8.10;;;7.60;;
40058;SDS011;25763;49.972;8.568;2023-02-28T00:42:11;9.05;;;8.45;;
40058;SDS011;25763;49.972;8.568;2023-02-28T00:44:36;8.60;;;8.10;;
40058;SDS011;25763;49.972;8.568;2023-02-28T00:47:01;8.20;;;7.70;;
40058;SDS011;25763;49.972;8.568;2023-02-28T00:49:27;9.00;;;8.40;;
40058;SDS011;25763;49.972;8.568;2023-02-28T00:51:53;8.50;;;8.00;;
40058;SDS011;25763;49.972;8.568;2023-02-28T00:54:19;8.50;;;8.00;;
40058;SDS011;25763;49.972;8.568;2023-02-28T00:56:45;8.05;;;7.55;;
40058;SDS011;25763;49.972;8.568;2023-02-28T00:59:11;8.65;;;8.10;;
40058;SDS011;25763;49.972;8.568;2023-02-28T01:01:37;9.27;;;8.68;;
40058;SDS011;25763;49.972;8.568;2023-02-28T01:04:02;9.50;;;8.90;;
40058;SDS011;25763;49.972;8.568;2023-02-28T01:06:28;9.00;;;8.40;;
40058;SDS011;25763;49.972;8.568;2023-02-28T01:08:53;9.05;;;8.45;;
40058;SDS011;25763;49.972;8.568;2023-02-28T01:11:18;8.02;;;7.53;;
40058;SDS011;25763;49.972;8.568;2023-02-28T01:13:44;9.70;;;9.00;;
40058;SDS011;25763;49.972;8.568;2023-02-28T01:16:10;8.60;;;8.10;;
40058;SDS011;25763;49.972;8.568;2023-02-28T01:18:36;9.68;;;9.02;;
40058;SDS011;25763;49.972;8.568;2023-02-28T01:21:03;8.30;;;7.80;;
40058;SDS011;25763;49.972;8.568;2023-02-28T01:23:33;8.53;;;8.03;;
40058;SDS011;25763;49.972;8.568;2023-02-28T01:26:03;7.93;;;7.43;;
40058;SDS011;25763;49.972;8.568;2023-02-28T01:28:42;8.40;;;7.90;;
40058;SDS011;25763;49.972;8.568;2023-02-28T01:31:08;8.57;;;7.97;;
40058;SDS011;25763;49.972;8.568;2023-02-28T01:33:34;9.25;;;8.65;;
40058;SDS011;25763;49.972;8.568;2023-02-28T01:36:00;8.43;;;7.93;;
40058;SDS011;25763;49.972;8.568;2023-02-28T01:38:28;18.92;;;7.97;;
40058;SDS011;25763;49.972;8.568;2023-02-28T01:40:53;9.48;;;8.68;;
40058;SDS011;25763;49.972;8.568;2023-02-28T01:43:23;8.38;;;7.80;;
40058;SDS011;25763;49.972;8.568;2023-02-28T01:48:16;9.05;;;8.45;;
40058;SDS011;25763;49.972;8.568;2023-02-28T01:50:43;8.02;;;7.53;;
40058;SDS011;25763;49.972;8.568;2023-02-28T01:53:12;8.35;;;7.85;;
40058;SDS011;25763;49.972;8.568;2023-02-28T01:55:40;8.30;;;7.80;;
40058;SDS011;25763;49.972;8.568;2023-02-28T01:58:09;8.68;;;8.07;;
40058;SDS011;25763;49.972;8.568;2023-02-28T02:00:35;8.55;;;7.95;;
40058;SDS011;25763;49.972;8.568;2023-02-28T02:03:05;9.15;;;8.10;;
40058;SDS011;25763;49.972;8.568;2023-02-28T02:05:34;9.07;;;8.48;;
40058;SDS011;25763;49.972;8.568;2023-02-28T02:08:03;8.07;;;7.57;;
40058;SDS011;25763;49.972;8.568;2023-02-28T02:10:36;8.52;;;8.02;;
40058;SDS011;25763;49.972;8.568;2023-02-28T02:15:57;9.60;;;9.00;;
40058;SDS011;25763;49.972;8.568;2023-02-28T02:18:34;8.43;;;7.93;;
40058;SDS011;25763;49.972;8.568;2023-02-28T02:29:19;8.60;;;8.02;;
40058;SDS011;25763;49.972;8.568;2023-02-28T02:31:50;8.45;;;7.95;;
40058;SDS011;25763;49.972;8.568;2023-02-28T02:34:39;8.32;;;7.80;;
40058;SDS011;25763;49.972;8.568;2023-02-28T02:37:42;9.20;;;8.60;;
40058;SDS011;25763;49.972;8.568;2023-02-28T02:40:19;8.23;;;7.72;;
40058;SDS011;25763;49.972;8.568;2023-02-28T02:43:01;8.77;;;8.18;;
40058;SDS011;25763;49.972;8.568;2023-02-28T02:45:50;9.02;;;8.43;;
40058;SDS011;25763;49.972;8.568;2023-02-28T02:48:17;9.15;;;8.55;;
40058;SDS011;25763;49.972;8.568;2023-02-28T02:50:45;8.98;;;8.38;;
40058;SDS011;25763;49.972;8.568;2023-02-28T02:55:44;8.55;;;8.02;;
40058;SDS011;25763;49.972;8.568;2023-02-28T02:58:14;9.30;;;8.70;;
40058;SDS011;25763;49.972;8.568;2023-02-28T03:00:45;8.57;;;8.02;;
40058;SDS011;25763;49.972;8.568;2023-02-28T03:03:15;8.50;;;8.00;;
40058;SDS011;25763;49.972;8.568;2023-02-28T03:05:46;9.15;;;8.55;;
40058;SDS011;25763;49.972;8.568;2023-02-28T03:08:13;8.32;;;7.72;;
40058;SDS011;25763;49.972;8.568;2023-02-28T03:10:46;9.40;;;8.68;;
40058;SDS011;25763;49.972;8.568;2023-02-28T03:18:57;8.90;;;8.30;;
40058;SDS011;25763;49.972;8.568;2023-02-28T03:24:11;8.43;;;7.90;;
40058;SDS011;25763;49.972;8.568;2023-02-28T03:29:13;8.98;;;8.38;;
40058;SDS011;25763;49.972;8.568;2023-02-28T03:31:47;9.10;;;8.50;;
40058;SDS011;25763;49.972;8.568;2023-02-28T03:34:19;8.57;;;8.02;;
40058;SDS011;25763;49.972;8.568;2023-02-28T03:36:51;8.52;;;8.02;;
40058;SDS011;25763;49.972;8.568;2023-02-28T03:39:25;8.70;;;8.10;;
40058;SDS011;25763;49.972;8.568;2023-02-28T03:41:59;8.90;;;8.30;;
40058;SDS011;25763;49.972;8.568;2023-02-28T03:44:38;10.32;;;9.65;;
40058;SDS011;25763;49.972;8.568;2023-02-28T03:47:08;9.48;;;8.77;;
40058;SDS011;25763;49.972;8.568;2023-02-28T03:49:45;9.52;;;8.93;;
40058;SDS011;25763;49.972;8.568;2023-02-28T03:52:14;9.82;;;9.23;;
40058;SDS011;25763;49.972;8.568;2023-02-28T03:54:45;8.75;;;8.20;;
40058;SDS011;25763;49.972;8.568;2023-02-28T03:57:20;8.45;;;7.95;;
40058;SDS011;25763;49.972;8.568;2023-02-28T04:00:07;9.50;;;8.90;;
40058;SDS011;25763;49.972;8.568;2023-02-28T04:02:38;8.82;;;8.23;;
40058;SDS011;25763;49.972;8.568;2023-02-28T04:05:05;9.10;;;8.50;;
40058;SDS011;25763;49.972;8.568;2023-02-28T04:07:31;9.32;;;8.63;;
40058;SDS011;25763;49.972;8.568;2023-02-28T04:09:57;8.40;;;7.90;;
40058;SDS011;25763;49.972;8.568;2023-02-28T04:12:24;8.32;;;7.82;;
40058;SDS011;25763;49.972;8.568;2023-02-28T04:14:49;8.70;;;8.10;;
40058;SDS011;25763;49.972;8.568;2023-02-28T04:17:15;9.23;;;8.63;;
40058;SDS011;25763;49.972;8.568;2023-02-28T04:19:41;9.25;;;8.65;;
40058;SDS011;25763;49.972;8.568;2023-02-28T04:22:07;9.80;;;9.18;;
40058;SDS011;25763;49.972;8.568;2023-02-28T04:24:33;9.13;;;8.52;;
40058;SDS011;25763;49.972;8.568;2023-02-28T04:26:59;9.25;;;8.65;;
40058;SDS011;25763;49.972;8.568;2023-02-28T04:29:28;8.82;;;8.25;;
40058;SDS011;25763;49.972;8.568;2023-02-28T04:31:55;10.03;;;9.43;;
40058;SDS011;25763;49.972;8.568;2023-02-28T04:34:25;9.05;;;8.45;;
40058;SDS011;25763;49.972;8.568;2023-02-28T04:36:51;9.45;;;8.85;;
40058;SDS011;25763;49.972;8.568;2023-02-28T04:39:19;9.45;;;8.85;;
40058;SDS011;25763;49.972;8.568;2023-02-28T04:41:45;9.32;;;8.73;;
40058;SDS011;25763;49.972;8.568;2023-02-28T04:44:11;9.18;;;8.57;;
40058;SDS011;25763;49.972;8.568;2023-02-28T04:46:37;9.20;;;8.55;;
40058;SDS011;25763;49.972;8.568;2023-02-28T04:49:02;9.35;;;8.75;;
40058;SDS011;25763;49.972;8.568;2023-02-28T04:51:27;9.65;;;9.00;;
40058;SDS011;25763;49.972;8.568;2023-02-28T04:53:53;9.65;;;9.05;;
40058;SDS011;25763;49.972;8.568;2023-02-28T04:56:19;9.45;;;8.85;;
40058;SDS011;25763;49.972;8.568;2023-02-28T04:58:44;8.90;;;8.30;;
40058;SDS011;25763;49.972;8.568;2023-02-28T05:01:24;9.73;;;8.93;;
40058;SDS011;25763;49.972;8.568;2023-02-28T05:03:52;9.27;;;8.68;;
40058;SDS011;25763;49.972;8.568;2023-02-28T05:06:18;9.38;;;8.77;;
40058;SDS011;25763;49.972;8.568;2023-02-28T05:08:45;9.40;;;8.80;;
40058;SDS011;25763;49.972;8.568;2023-02-28T05:11:13;9.75;;;9.15;;
40058;SDS011;25763;49.972;8.568;2023-02-28T05:13:43;9.57;;;8.95;;
40058;SDS011;25763;49.972;8.568;2023-02-28T05:16:09;9.35;;;8.75;;
40058;SDS011;25763;49.972;8.568;2023-02-28T05:18:35;8.65;;;8.07;;
40058;SDS011;25763;49.972;8.568;2023-02-28T05:21:00;9.13;;;8.52;;
40058;SDS011;25763;49.972;8.568;2023-02-28T05:23:28;8.98;;;8.38;;
40058;SDS011;25763;49.972;8.568;2023-02-28T05:25:54;9.35;;;8.75;;
40058;SDS011;25763;49.972;8.568;2023-02-28T05:28:20;9.25;;;8.65;;
40058;SDS011;25763;49.972;8.568;2023-02-28T05:30:46;8.88;;;8.27;;
40058;SDS011;25763;49.972;8.568;2023-02-28T05:33:11;9.32;;;8.63;;
40058;SDS011;25763;49.972;8.568;2023-02-28T05:35:41;9.45;;;8.85;;
40058;SDS011;25763;49.972;8.568;2023-02-28T05:38:07;9.25;;;8.57;;
40058;SDS011;25763;49.972;8.568;2023-02-28T05:40:33;9.25;;;8.65;;
40058;SDS011;25763;49.972;8.568;2023-02-28T05:42:58;8.77;;;8.18;;
40058;SDS011;25763;49.972;8.568;2023-02-28T05:45:23;10.02;;;9.43;;
40058;SDS011;25763;49.972;8.568;2023-02-28T05:47:49;8.88;;;8.30;;
40058;SDS011;25763;49.972;8.568;2023-02-28T05:50:18;8.60;;;8.00;;
40058;SDS011;25763;49.972;8.568;2023-02-28T05:52:43;9.18;;;8.57;;
40058;SDS011;25763;49.972;8.568;2023-02-28T05:55:09;9.35;;;8.75;;
40058;SDS011;25763;49.972;8.568;2023-02-28T05:57:34;9.18;;;8.57;;
40058;SDS011;25763;49.972;8.568;2023-02-28T05:59:59;9.60;;;9.00;;
40058;SDS011;25763;49.972;8.568;2023-02-28T06:02:25;8.60;;;8.10;;
40058;SDS011;25763;49.972;8.568;2023-02-28T06:04:50;9.98;;;9.27;;
40058;SDS011;25763;49.972;8.568;2023-02-28T06:07:15;9.05;;;8.45;;
40058;SDS011;25763;49.972;8.568;2023-02-28T06:09:42;9.10;;;8.50;;
40058;SDS011;25763;49.972;8.568;2023-02-28T06:12:07;8.73;;;8.20;;
40058;SDS011;25763;49.972;8.568;2023-02-28T06:14:35;9.40;;;8.70;;
40058;SDS011;25763;49.972;8.568;2023-02-28T06:17:01;14.18;;;8.73;;
40058;SDS011;25763;49.972;8.568;2023-02-28T06:19:27;9.38;;;8.77;;
40058;SDS011;25763;49.972;8.568;2023-02-28T06:21:53;8.60;;;8.05;;
40058;SDS011;25763;49.972;8.568;2023-02-28T06:24:19;9.30;;;8.60;;
40058;SDS011;25763;49.972;8.568;2023-02-28T06:26:49;8.68;;;8.15;;
40058;SDS011;25763;49.972;8.568;2023-02-28T06:29:14;9.57;;;8.93;;
40058;SDS011;25763;49.972;8.568;2023-02-28T06:31:46;9.23;;;8.63;;
40058;SDS011;25763;49.972;8.568;2023-02-28T06:34:12;8.50;;;8.00;;
40058;SDS011;25763;49.972;8.568;2023-02-28T06:36:38;9.80;;;9.20;;
40058;SDS011;25763;49.972;8.568;2023-02-28T06:39:04;8.63;;;8.10;;
40058;SDS011;25763;49.972;8.568;2023-02-28T06:41:30;9.35;;;8.73;;
40058;SDS011;25763;49.972;8.568;2023-02-28T06:43:55;9.25;;;8.65;;
40058;SDS011;25763;49.972;8.568;2023-02-28T06:46:21;9.80;;;9.20;;
40058;SDS011;25763;49.972;8.568;2023-02-28T06:48:47;9.68;;;9.07;;
40058;SDS011;25763;49.972;8.568;2023-02-28T06:51:14;9.30;;;8.70;;
40058;SDS011;25763;49.972;8.568;2023-02-28T06:53:42;9.38;;;8.77;;
40058;SDS011;25763;49.972;8.568;2023-02-28T06:56:08;9.80;;;9.20;;
40058;SDS011;25763;49.972;8.568;2023-02-28T06:58:35;8.82;;;8.25;;
40058;SDS011;25763;49.972;8.568;2023-02-28T07:01:02;9.75;;;9.15;;
40058;SDS011;25763;49.972;8.568;2023-02-28T07:03:28;9.75;;;9.15;;
40058;SDS011;25763;49.972;8.568;2023-02-28T07:05:54;10.38;;;9.57;;
40058;SDS011;25763;49.972;8.568;2023-02-28T07:08:21;9.90;;;9.30;;
40058;SDS011;25763;49.972;8.568;2023-02-28T07:10:53;9.30;;;8.70;;
40058;SDS011;25763;49.972;8.568;2023-02-28T07:13:20;9.02;;;8.43;;
40058;SDS011;25763;49.972;8.568;2023-02-28T07:15:56;8.90;;;8.30;;
40058;SDS011;25763;49.972;8.568;2023-02-28T07:18:26;9.18;;;8.57;;
40058;SDS011;25763;49.972;8.568;2023-02-28T07:20:52;8.60;;;8.07;;
40058;SDS011;25763;49.972;8.568;2023-02-28T07:23:17;9.30;;;8.70;;
40058;SDS011;25763;49.972;8.568;2023-02-28T07:25:43;9.18;;;8.52;;
40058;SDS011;25763;49.972;8.568;2023-02-28T07:28:10;8.55;;;8.05;;
40058;SDS011;25763;49.972;8.568;2023-02-28T07:30:36;9.38;;;8.77;;
40058;SDS011;25763;49.972;8.568;2023-02-28T07:33:01;8.35;;;7.75;;
40058;SDS011;25763;49.972;8.568;2023-02-28T07:35:27;8.18;;;7.68;;
40058;SDS011;25763;49.972;8.568;2023-02-28T07:37:52;9.18;;;8.57;;
40058;SDS011;25763;49.972;8.568;2023-02-28T07:40:17;9.55;;;8.95;;
40058;SDS011;25763;49.972;8.568;2023-02-28T07:42:43;9.45;;;8.85;;
40058;SDS011;25763;49.972;8.568;2023-02-28T07:45:10;10.05;;;9.35;;
40058;SDS011;25763;49.972;8.568;2023-02-28T07:47:37;10.32;;;9.73;;
40058;SDS011;25763;49.972;8.568;2023-02-28T07:50:04;9.82;;;9.13;;
40058;SDS011;25763;49.972;8.568;2023-02-28T07:52:30;9.40;;;8.80;;
40058;SDS011;25763;49.972;8.568;2023-02-28T07:54:56;9.10;;;8.50;;
40058;SDS011;25763;49.972;8.568;2023-02-28T07:57:21;9.20;;;8.60;;
40058;SDS011;25763;49.972;8.568;2023-02-28T07:59:46;9.00;;;8.40;;
40058;SDS011;25763;49.972;8.568;2023-02-28T08:02:13;9.98;;;9.27;;
40058;SDS011;25763;49.972;8.568;2023-02-28T08:04:40;8.90;;;8.30;;
40058;SDS011;25763;49.972;8.568;2023-02-28T08:07:05;9.52;;;8.88;;
40058;SDS011;25763;49.972;8.568;2023-02-28T08:09:31;8.43;;;7.93;;
40058;SDS011;25763;49.972;8.568;2023-02-28T08:11:56;9.38;;;8.77;;
40058;SDS011;25763;49.972;8.568;2023-02-28T08:14:21;9.45;;;8.85;;
40058;SDS011;25763;49.972;8.568;2023-02-28T08:16:47;10.25;;;9.55;;
40058;SDS011;25763;49.972;8.568;2023-02-28T08:19:12;9.00;;;8.40;;
40058;SDS011;25763;49.972;8.568;2023-02-28T08:21:37;8.98;;;8.38;;
40058;SDS011;25763;49.972;8.568;2023-02-28T08:24:03;9.23;;;8.63;;
40058;SDS011;25763;49.972;8.568;2023-02-28T08:26:28;9.02;;;8.43;;
40058;SDS011;25763;49.972;8.568;2023-02-28T08:28:53;9.07;;;8.48;;
40058;SDS011;25763;49.972;8.568;2023-02-28T08:31:19;9.18;;;8.57;;
40058;SDS011;25763;49.972;8.568;2023-02-28T08:33:44;9.10;;;8.50;;
40058;SDS011;25763;49.972;8.568;2023-02-28T08:36:11;9.48;;;8.77;;
40058;SDS011;25763;49.972;8.568;2023-02-28T08:38:37;9.75;;;9.15;;
40058;SDS011;25763;49.972;8.568;2023-02-28T08:41:04;9.45;;;8.85;;
40058;SDS011;25763;49.972;8.568;2023-02-28T08:43:32;10.15;;;9.55;;
40058;SDS011;25763;49.972;8.568;2023-02-28T08:46:00;10.45;;;9.85;;
40058;SDS011;25763;49.972;8.568;2023-02-28T08:48:26;14.20;;;9.10;;
40058;SDS011;25763;49.972;8.568;2023-02-28T08:51:00;10.18;;;9.50;;
40058;SDS011;25763;49.972;8.568;2023-02-28T08:53:27;9.55;;;8.95;;
40058;SDS011;25763;49.972;8.568;2023-02-28T08:56:11;10.95;;;10.25;;
40058;SDS011;25763;49.972;8.568;2023-02-28T08:58:38;9.25;;;8.65;;
40058;SDS011;25763;49.972;8.568;2023-02-28T09:01:07;10.95;;;10.25;;
40058;SDS011;25763;49.972;8.568;2023-02-28T09:03:34;11.60;;;10.90;;
40058;SDS011;25763;49.972;8.568;2023-02-28T09:06:00;11.00;;;10.32;;
40058;SDS011;25763;49.972;8.568;2023-02-28T09:08:27;11.20;;;10.50;;
40058;SDS011;25763;49.972;8.568;2023-02-28T09:10:53;11.43;;;10.73;;
40058;SDS011;25763;49.972;8.568;2023-02-28T09:13:19;10.65;;;10.00;;
40058;SDS011;25763;49.972;8.568;2023-02-28T09:15:45;11.35;;;10.65;;
40058;SDS011;25763;49.972;8.568;2023-02-28T09:18:10;11.60;;;10.90;;
40058;SDS011;25763;49.972;8.568;2023-02-28T09:20:39;12.25;;;11.52;;
40058;SDS011;25763;49.972;8.568;2023-02-28T09:23:06;12.95;;;12.05;;
40058;SDS011;25763;49.972;8.568;2023-02-28T09:25:32;11.95;;;11.23;;
40058;SDS011;25763;49.972;8.568;2023-02-28T09:27:58;12.63;;;11.77;;
40058;SDS011;25763;49.972;8.568;2023-02-28T09:30:24;11.48;;;10.77;;
40058;SDS011;25763;49.972;8.568;2023-02-28T09:32:49;11.25;;;10.55;;
40058;SDS011;25763;49.972;8.568;2023-02-28T09:35:17;11.30;;;10.60;;
40058;SDS011;25763;49.972;8.568;2023-02-28T09:37:43;11.80;;;11.10;;
40058;SDS011;25763;49.972;8.568;2023-02-28T09:40:10;11.45;;;10.75;;
40058;SDS011;25763;49.972;8.568;2023-02-28T09:42:37;11.48;;;10.77;;
40058;SDS011;25763;49.972;8.568;2023-02-28T09:45:05;11.27;;;10.57;;
40058;SDS011;25763;49.972;8.568;2023-02-28T09:47:38;11.15;;;10.45;;
40058;SDS011;25763;49.972;8.568;2023-02-28T09:52:48;10.80;;;10.15;;
40058;SDS011;25763;49.972;8.568;2023-02-28T09:57:47;12.98;;;12.18;;
40058;SDS011;25763;49.972;8.568;2023-02-28T10:02:57;11.77;;;11.07;;
40058;SDS011;25763;49.972;8.568;2023-02-28T10:11:22;11.73;;;10.95;;
40058;SDS011;25763;49.972;8.568;2023-02-28T10:13:53;12.48;;;11.63;;
40058;SDS011;25763;49.972;8.568;2023-02-28T10:16:46;12.43;;;11.63;;
40058;SDS011;25763;49.972;8.568;2023-02-28T10:22:05;13.30;;;12.50;;
40058;SDS011;25763;49.972;8.568;2023-02-28T10:24:40;12.32;;;11.55;;
40058;SDS011;25763;49.972;8.568;2023-02-28T10:29:50;11.95;;;11.23;;
40058;SDS011;25763;49.972;8.568;2023-02-28T10:32:20;10.98;;;10.30;;
40058;SDS011;25763;49.972;8.568;2023-02-28T10:35:29;11.55;;;10.85;;
40058;SDS011;25763;49.972;8.568;2023-02-28T10:37:39;11.25;;;10.55;;
40058;SDS011;25763;49.972;8.568;2023-02-28T10:40:06;11.20;;;10.52;;
40058;SDS011;25763;49.972;8.568;2023-02-28T10:42:57;12.43;;;11.70;;
40058;SDS011;25763;49.972;8.568;2023-02-28T10:45:26;13.88;;;13.07;;
40058;SDS011;25763;49.972;8.568;2023-02-28T10:48:02;12.02;;;11.32;;
40058;SDS011;25763;49.972;8.568;2023-02-28T10:55:56;11.75;;;11.02;;
40058;SDS011;25763;49.972;8.568;2023-02-28T10:58:48;12.50;;;11.80;;
40058;SDS011;25763;49.972;8.568;2023-02-28T11:03:49;14.48;;;13.57;;
40058;SDS011;25763;49.972;8.568;2023-02-28T11:06:20;13.90;;;13.10;;
40058;SDS011;25763;49.972;8.568;2023-02-28T11:08:56;15.30;;;14.20;;
40058;SDS011;25763;49.972;8.568;2023-02-28T11:11:24;13.90;;;13.10;;
40058;SDS011;25763;49.972;8.568;2023-02-28T11:13:53;12.40;;;11.60;;
40058;SDS011;25763;49.972;8.568;2023-02-28T11:16:20;12.88;;;12.07;;
40058;SDS011;25763;49.972;8.568;2023-02-28T11:18:50;13.07;;;12.27;;
40058;SDS011;25763;49.972;8.568;2023-02-28T11:23:55;12.90;;;12.02;;
40058;SDS011;25763;49.972;8.568;2023-02-28T11:26:34;12.88;;;12.13;;
40058;SDS011;25763;49.972;8.568;2023-02-28T11:29:17;13.13;;;12.32;;
40058;SDS011;25763;49.972;8.568;2023-02-28T11:32:05;12.77;;;12.07;;
40058;SDS011;25763;49.972;8.568;2023-02-28T11:34:36;13.65;;;12.85;;
40058;SDS011;25763;49.972;8.568;2023-02-28T11:37:02;13.38;;;12.57;;
40058;SDS011;25763;49.972;8.568;2023-02-28T11:39:32;14.02;;;13.10;;
40058;SDS011;25763;49.972;8.568;2023-02-28T11:48:32;13.40;;;12.60;;
40058;SDS011;25763;49.972;8.568;2023-02-28T11:50:57;12.55;;;11.85;;
40058;SDS011;25763;49.972;8.568;2023-02-28T11:56:20;12.95;;;12.15;;
40058;SDS011;25763;49.972;8.568;2023-02-28T12:09:13;13.80;;;13.00;;
40058;SDS011;25763;49.972;8.568;2023-02-28T12:11:58;13.50;;;12.60;;
40058;SDS011;25763;49.972;8.568;2023-02-28T12:20:05;12.55;;;11.75;;
40058;SDS011;25763;49.972;8.568;2023-02-28T12:23:00;12.85;;;12.05;;
40058;SDS011;25763;49.972;8.568;2023-02-28T12:28:21;14.32;;;13.35;;
40058;SDS011;25763;49.972;8.568;2023-02-28T12:30:56;13.20;;;12.40;;
40058;SDS011;25763;49.972;8.568;2023-02-28T12:33:27;12.30;;;11.50;;
40058;SDS011;25763;49.972;8.568;2023-02-28T12:35:58;13.38;;;12.57;;
40058;SDS011;25763;49.972;8.568;2023-02-28T12:38:27;13.00;;;12.20;;
40058;SDS011;25763;49.972;8.568;2023-02-28T12:41:12;14.23;;;13.23;;
40058;SDS011;25763;49.972;8.568;2023-02-28T12:43:42;12.40;;;11.68;;
40058;SDS011;25763;49.972;8.568;2023-02-28T12:46:15;13.80;;;12.90;;
40058;SDS011;25763;49.972;8.568;2023-02-28T12:48:47;12.60;;;11.88;;
40058;SDS011;25763;49.972;8.568;2023-02-28T12:51:16;14.90;;;14.00;;
40058;SDS011;25763;49.972;8.568;2023-02-28T12:54:02;13.60;;;12.80;;
40058;SDS011;25763;49.972;8.568;2023-02-28T12:56:50;14.60;;;13.68;;
40058;SDS011;25763;49.972;8.568;2023-02-28T13:07:51;12.57;;;11.77;;
40058;SDS011;25763;49.972;8.568;2023-02-28T13:10:46;13.48;;;12.65;;
40058;SDS011;25763;49.972;8.568;2023-02-28T13:13:18;13.05;;;12.25;;
40058;SDS011;25763;49.972;8.568;2023-02-28T13:15:58;13.30;;;12.50;;
40058;SDS011;25763;49.972;8.568;2023-02-28T13:18:32;13.07;;;12.20;;
40058;SDS011;25763;49.972;8.568;2023-02-28T13:21:02;13.80;;;12.90;;
40058;SDS011;25763;49.972;8.568;2023-02-28T13:39:46;13.73;;;12.93;;
40058;SDS011;25763;49.972;8.568;2023-02-28T13:42:23;15.05;;;13.93;;
40058;SDS011;25763;49.972;8.568;2023-02-28T13:47:43;13.10;;;12.30;;
40058;SDS011;25763;49.972;8.568;2023-02-28T13:58:27;14.05;;;13.15;;
40058;SDS011;25763;49.972;8.568;2023-02-28T14:08:57;13.55;;;12.75;;
40058;SDS011;25763;49.972;8.568;2023-02-28T14:11:30;15.13;;;14.23;;
40058;SDS011;25763;49.972;8.568;2023-02-28T14:13:57;13.85;;;13.05;;
40058;SDS011;25763;49.972;8.568;2023-02-28T14:16:25;15.13;;;14.15;;
40058;SDS011;25763;49.972;8.568;2023-02-28T14:18:58;14.85;;;13.93;;
40058;SDS011;25763;49.972;8.568;2023-02-28T14:21:31;14.80;;;13.85;;
40058;SDS011;25763;49.972;8.568;2023-02-28T14:24:13;13.38;;;12.57;;
40058;SDS011;25763;49.972;8.568;2023-02-28T14:27:11;12.93;;;12.13;;
40058;SDS011;25763;49.972;8.568;2023-02-28T14:37:29;13.73;;;12.85;;
40058;SDS011;25763;49.972;8.568;2023-02-28T14:39:59;14.48;;;13.57;;
40058;SDS011;25763;49.972;8.568;2023-02-28T14:42:33;14.27;;;13.38;;
40058;SDS011;25763;49.972;8.568;2023-02-28T14:45:01;13.50;;;12.70;;
40058;SDS011;25763;49.972;8.568;2023-02-28T14:50:49;13.80;;;12.93;;
40058;SDS011;25763;49.972;8.568;2023-02-28T14:53:18;14.50;;;13.70;;
40058;SDS011;25763;49.972;8.568;2023-02-28T14:55:46;13.02;;;12.23;;
40058;SDS011;25763;49.972;8.568;2023-02-28T14:58:50;14.68;;;13.77;;
40058;SDS011;25763;49.972;8.568;2023-02-28T15:01:05;15.07;;;13.73;;
40058;SDS011;25763;49.972;8.568;2023-02-28T15:03:32;13.35;;;12.55;;
40058;SDS011;25763;49.972;8.568;2023-02-28T15:06:00;14.90;;;14.00;;
40058;SDS011;25763;49.972;8.568;2023-02-28T15:08:28;14.20;;;13.30;;
40058;SDS011;25763;49.972;8.568;2023-02-28T15:10:58;13.05;;;12.25;;
40058;SDS011;25763;49.972;8.568;2023-02-28T15:13:30;12.73;;;12.00;;
40058;SDS011;25763;49.972;8.568;2023-02-28T15:16:04;13.30;;;12.50;;
40058;SDS011;25763;49.972;8.568;2023-02-28T15:21:15;12.77;;;12.07;;
40058;SDS011;25763;49.972;8.568;2023-02-28T15:23:44;13.90;;;13.10;;
40058;SDS011;25763;49.972;8.568;2023-02-28T15:26:16;13.43;;;12.63;;
40058;SDS011;25763;49.972;8.568;2023-02-28T15:28:45;14.15;;;13.15;;
40058;SDS011;25763;49.972;8.568;2023-02-28T15:31:46;15.02;;;14.02;;
40058;SDS011;25763;49.972;8.568;2023-02-28T15:39:52;13.00;;;12.10;;
40058;SDS011;25763;49.972;8.568;2023-02-28T15:42:20;12.23;;;11.52;;
40058;SDS011;25763;49.972;8.568;2023-02-28T15:44:46;13.02;;;12.00;;
40058;SDS011;25763;49.972;8.568;2023-02-28T15:47:16;12.32;;;11.45;;
40058;SDS011;25763;49.972;8.568;2023-02-28T15:49:47;12.27;;;11.57;;
40058;SDS011;25763;49.972;8.568;2023-02-28T15:52:27;12.02;;;11.32;;
40058;SDS011;25763;49.972;8.568;2023-02-28T15:54:58;11.70;;;11.00;;
40058;SDS011;25763;49.972;8.568;2023-02-28T15:57:31;12.10;;;11.40;;
40058;SDS011;25763;49.972;8.568;2023-02-28T15:59:58;14.68;;;13.77;;
40058;SDS011;25763;49.972;8.568;2023-02-28T16:02:33;12.98;;;12.18;;
40058;SDS011;25763;49.972;8.568;2023-02-28T16:07:28;13.38;;;12.57;;
40058;SDS011;25763;49.972;8.568;2023-02-28T16:09:54;12.05;;;11.25;;
40058;SDS011;25763;49.972;8.568;2023-02-28T16:12:20;12.68;;;11.88;;
40058;SDS011;25763;49.972;8.568;2023-02-28T16:14:49;11.75;;;11.05;;
40058;SDS011;25763;49.972;8.568;2023-02-28T16:17:19;12.55;;;11.85;;
40058;SDS011;25763;49.972;8.568;2023-02-28T16:19:47;11.73;;;11.02;;
40058;SDS011;25763;49.972;8.568;2023-02-28T16:22:12;12.07;;;11.38;;
40058;SDS011;25763;49.972;8.568;2023-02-28T16:24:37;11.18;;;10.48;;
40058;SDS011;25763;49.972;8.568;2023-02-28T16:27:04;11.98;;;11.25;;
40058;SDS011;25763;49.972;8.568;2023-02-28T16:29:31;13.77;;;12.65;;
40058;SDS011;25763;49.972;8.568;2023-02-28T16:31:58;13.55;;;12.75;;
40058;SDS011;25763;49.972;8.568;2023-02-28T16:34:24;14.65;;;13.65;;
40058;SDS011;25763;49.972;8.568;2023-02-28T16:36:50;12.88;;;12.07;;
40058;SDS011;25763;49.972;8.568;2023-02-28T16:39:16;13.82;;;12.90;;
40058;SDS011;25763;49.972;8.568;2023-02-28T16:41:41;13.05;;;12.25;;
40058;SDS011;25763;49.972;8.568;2023-02-28T16:44:13;15.15;;;14.13;;
40058;SDS011;25763;49.972;8.568;2023-02-28T16:47:03;13.88;;;12.65;;
40058;SDS011;25763;49.972;8.568;2023-02-28T16:49:29;13.00;;;12.10;;
40058;SDS011;25763;49.972;8.568;2023-02-28T16:51:55;14.57;;;13.68;;
40058;SDS011;25763;49.972;8.568;2023-02-28T16:54:20;12.90;;;11.88;;
40058;SDS011;25763;49.972;8.568;2023-02-28T16:56:46;13.43;;;12.43;;
40058;SDS011;25763;49.972;8.568;2023-02-28T16:59:13;11.95;;;11.25;;
40058;SDS011;25763;49.972;8.568;2023-02-28T17:01:43;11.52;;;10.82;;
40058;SDS011;25763;49.972;8.568;2023-02-28T17:04:08;11.73;;;11.02;;
40058;SDS011;25763;49.972;8.568;2023-02-28T17:06:36;11.52;;;10.82;;
40058;SDS011;25763;49.972;8.568;2023-02-28T17:09:01;11.30;;;10.60;;
40058;SDS011;25763;49.972;8.568;2023-02-28T17:11:27;11.20;;;10.50;;
40058;SDS011;25763;49.972;8.568;2023-02-28T17:13:52;11.77;;;10.98;;
40058;SDS011;25763;49.972;8.568;2023-02-28T17:16:30;11.60;;;10.80;;
40058;SDS011;25763;49.972;8.568;2023-02-28T17:18:58;10.70;;;9.93;;